Time;durP1;ratioP1;P1;durP2;ratioP2;P2;SDS_P1;SDS_P2;PMS_P1;PMS_P2;Temp;Humidity;BMP_temperature;BMP_pressure;BME280_temperature;BME280_humidity;BME280_pressure;Samples;Min_cycle;Max_cycle;Signal;HPM_P1;HPM_P2
2022/12/02 00:00:36;;;;;;;;;;;4.00;81.10;;;;;;5033071;28;19921;-79
2022/12/02 00:03:01;;;;;;;;;;;4.20;80.50;;;;;;5024243;28;20299;-79
2022/12/02 00:05:29;;;;;;;;;;;4.30;80.30;;;;;;5027773;28;19912;-80
2022/12/02 00:07:57;;;;;;;;;;;4.30;80.10;;;;;;5026629;28;19923;-79
2022/12/02 00:10:22;;;;;;;;;;;4.30;80.20;;;;;;5045246;28;19967;-77
2022/12/02 00:12:48;;;;;;;;;;;4.20;79.70;;;;;;5012693;28;20296;-76
2022/12/02 00:15:34;;;;;;;;;;;4.30;80.00;;;;;;5046355;28;19997;-79
2022/12/02 00:17:59;;;;;;;;;;;4.30;80.20;;;;;;5018320;28;19913;-80
2022/12/02 00:20:25;;;;;;;;;;;4.40;80.50;;;;;;5023307;28;20350;-78
2022/12/02 00:22:50;;;;;;;;;;;4.50;79.30;;;;;;5035071;28;19970;-79
2022/12/02 00:25:15;;;;;;;;;;;4.50;79.50;;;;;;5017304;28;19913;-77
2022/12/02 00:27:43;;;;;;;;;;;4.60;79.70;;;;;;5038708;28;19935;-78
2022/12/02 00:30:09;;;;;;;;;;;4.60;79.10;;;;;;5029479;28;19924;-77
2022/12/02 00:32:34;;;;;;;;;;;4.70;78.30;;;;;;5022806;28;19914;-78
2022/12/02 00:35:00;;;;;;;;;;;4.60;78.40;;;;;;5048777;28;19913;-80
2022/12/02 00:37:25;;;;;;;;;;;4.50;79.20;;;;;;5008303;28;21411;-79
2022/12/02 00:39:51;;;;;;;;;;;4.40;79.60;;;;;;5027100;28;19920;-80
2022/12/02 00:42:16;;;;;;;;;;;4.40;80.10;;;;;;5040012;28;19913;-79
2022/12/02 00:47:26;;;;;;;;;;;4.30;81.40;;;;;;5040739;28;19919;-79
2022/12/02 00:49:51;;;;;;;;;;;4.40;81.20;;;;;;5040546;28;20003;-77
2022/12/02 00:52:17;;;;;;;;;;;4.30;81.60;;;;;;5009916;28;20167;-79
2022/12/02 00:54:42;;;;;;;;;;;4.30;81.70;;;;;;5015965;28;19917;-79
2022/12/02 00:57:07;;;;;;;;;;;4.30;82.10;;;;;;5024470;28;20387;-78
2022/12/02 00:59:33;;;;;;;;;;;4.40;81.80;;;;;;5017461;28;19976;-78
2022/12/02 01:01:58;;;;;;;;;;;4.20;81.80;;;;;;5013770;28;19959;-78
2022/12/02 01:04:24;;;;;;;;;;;4.20;82.00;;;;;;5012322;28;20738;-77
2022/12/02 01:06:49;;;;;;;;;;;4.20;82.20;;;;;;5027920;28;20364;-79
2022/12/02 01:09:15;;;;;;;;;;;4.10;82.50;;;;;;5009117;28;19949;-77
2022/12/02 01:11:40;;;;;;;;;;;4.10;82.90;;;;;;5026707;28;20112;-78
2022/12/02 01:14:06;;;;;;;;;;;4.10;82.60;;;;;;5015182;28;19951;-80
2022/12/02 01:16:31;;;;;;;;;;;4.10;82.60;;;;;;5004145;28;19921;-79
2022/12/02 01:18:57;;;;;;;;;;;4.10;82.90;;;;;;5008046;28;19917;-79
2022/12/02 01:21:22;;;;;;;;;;;4.10;82.80;;;;;;5027193;28;19921;-78
2022/12/02 01:23:48;;;;;;;;;;;4.20;82.40;;;;;;5047619;28;20117;-80
2022/12/02 01:26:13;;;;;;;;;;;4.30;82.80;;;;;;5045561;28;19913;-80
2022/12/02 01:28:39;;;;;;;;;;;4.30;82.50;;;;;;5039902;28;19912;-77
2022/12/02 01:31:04;;;;;;;;;;;4.20;82.50;;;;;;5044155;28;20420;-79
2022/12/02 01:33:30;;;;;;;;;;;4.30;82.50;;;;;;5034711;28;19928;-79
2022/12/02 01:35:55;;;;;;;;;;;4.20;82.60;;;;;;5021001;28;20011;-79
2022/12/02 01:38:21;;;;;;;;;;;4.10;82.80;;;;;;5019490;28;19917;-80
2022/12/02 01:40:46;;;;;;;;;;;4.10;82.70;;;;;;5048072;28;19917;-80
2022/12/02 01:43:12;;;;;;;;;;;4.10;83.50;;;;;;5023067;28;19943;-80
2022/12/02 01:45:37;;;;;;;;;;;4.00;83.30;;;;;;5049782;28;19940;-77
2022/12/02 01:48:03;;;;;;;;;;;4.10;83.50;;;;;;5046926;28;19929;-80
2022/12/02 01:50:29;;;;;;;;;;;4.10;83.50;;;;;;5038241;28;19975;-80
2022/12/02 01:52:55;;;;;;;;;;;4.20;83.30;;;;;;5032843;28;19991;-80
2022/12/02 01:55:21;;;;;;;;;;;4.20;83.20;;;;;;5037829;28;19955;-80
2022/12/02 01:57:47;;;;;;;;;;;4.30;83.00;;;;;;5018894;28;19913;-79
2022/12/02 02:00:13;;;;;;;;;;;4.40;82.50;;;;;;5009141;28;20287;-78
2022/12/02 02:02:39;;;;;;;;;;;4.40;82.70;;;;;;5030055;28;19955;-78
2022/12/02 02:05:06;;;;;;;;;;;4.50;82.60;;;;;;5031561;28;19920;-77
2022/12/02 02:07:33;;;;;;;;;;;4.40;82.70;;;;;;5032543;28;19913;-79
2022/12/02 02:09:58;;;;;;;;;;;4.30;82.50;;;;;;5038810;28;19924;-78
2022/12/02 02:12:24;;;;;;;;;;;4.20;83.20;;;;;;5015545;28;19913;-80
2022/12/02 02:14:50;;;;;;;;;;;4.20;83.30;;;;;;5028962;28;19992;-79
2022/12/02 02:17:15;;;;;;;;;;;4.40;83.00;;;;;;5017808;28;19983;-79
2022/12/02 02:19:42;;;;;;;;;;;4.30;82.90;;;;;;5034156;28;19921;-79
2022/12/02 02:22:13;;;;;;;;;;;4.30;83.20;;;;;;5038054;28;20387;-80
2022/12/02 02:24:39;;;;;;;;;;;4.30;83.00;;;;;;5021916;28;19917;-77
2022/12/02 02:27:04;;;;;;;;;;;4.20;83.40;;;;;;5025417;28;20279;-80
2022/12/02 02:29:30;;;;;;;;;;;4.20;83.30;;;;;;5035559;28;19917;-79
2022/12/02 02:31:55;;;;;;;;;;;4.20;83.50;;;;;;5023746;28;20308;-79
2022/12/02 02:34:21;;;;;;;;;;;4.10;83.70;;;;;;5017355;28;19917;-78
2022/12/02 02:36:46;;;;;;;;;;;4.20;83.70;;;;;;5014481;28;19913;-78
2022/12/02 02:39:12;;;;;;;;;;;4.20;83.80;;;;;;5042355;28;20292;-78
2022/12/02 02:41:37;;;;;;;;;;;4.30;83.40;;;;;;5014572;28;19967;-78
2022/12/02 02:44:03;;;;;;;;;;;4.20;83.70;;;;;;5034273;28;19920;-78
2022/12/02 02:46:29;;;;;;;;;;;4.10;83.90;;;;;;5037578;28;19935;-76
2022/12/02 02:48:54;;;;;;;;;;;4.10;83.90;;;;;;5035370;28;20005;-76
2022/12/02 02:51:20;;;;;;;;;;;4.10;84.30;;;;;;5063048;28;19909;-75
2022/12/02 02:53:45;;;;;;;;;;;4.20;84.50;;;;;;5059489;28;19913;-77
2022/12/02 02:56:11;;;;;;;;;;;4.20;84.20;;;;;;5032249;28;20380;-77
2022/12/02 02:58:36;;;;;;;;;;;4.30;83.80;;;;;;5006508;28;19913;-79
2022/12/02 03:01:08;;;;;;;;;;;4.20;84.10;;;;;;5011855;28;19913;-78
2022/12/02 03:03:37;;;;;;;;;;;4.20;84.20;;;;;;5013480;28;19939;-77
2022/12/02 03:06:04;;;;;;;;;;;4.20;84.30;;;;;;5017953;28;19944;-79
2022/12/02 03:08:30;;;;;;;;;;;4.20;84.20;;;;;;5026595;28;19913;-78
2022/12/02 03:10:58;;;;;;;;;;;4.20;84.30;;;;;;5014460;28;20188;-80
2022/12/02 03:13:24;;;;;;;;;;;4.30;84.20;;;;;;5022428;28;19921;-80
2022/12/02 03:15:50;;;;;;;;;;;4.30;84.20;;;;;;5015232;28;19920;-79
2022/12/02 03:18:15;;;;;;;;;;;4.30;84.50;;;;;;5033527;28;19940;-79
2022/12/02 03:20:41;;;;;;;;;;;4.30;84.40;;;;;;5021568;28;19917;-77
2022/12/02 03:23:06;;;;;;;;;;;4.40;84.00;;;;;;5021989;28;19913;-79
2022/12/02 03:25:32;;;;;;;;;;;4.40;84.30;;;;;;5025728;28;19919;-79
2022/12/02 03:27:57;;;;;;;;;;;4.40;84.00;;;;;;5025584;28;19943;-79
2022/12/02 03:30:23;;;;;;;;;;;4.50;83.30;;;;;;5041127;28;19921;-77
2022/12/02 03:32:49;;;;;;;;;;;4.30;84.00;;;;;;5016288;28;19927;-79
2022/12/02 03:35:15;;;;;;;;;;;4.30;84.00;;;;;;5009940;28;19917;-79
2022/12/02 03:37:40;;;;;;;;;;;4.40;84.00;;;;;;5020960;28;19924;-79
2022/12/02 03:40:06;;;;;;;;;;;4.30;84.10;;;;;;5012885;28;19917;-79
2022/12/02 03:42:32;;;;;;;;;;;4.30;84.30;;;;;;5032259;28;20330;-79
2022/12/02 03:44:58;;;;;;;;;;;4.30;84.00;;;;;;5011437;28;20298;-78
2022/12/02 03:47:24;;;;;;;;;;;4.30;84.40;;;;;;5045566;28;19919;-78
2022/12/02 03:49:49;;;;;;;;;;;4.20;84.20;;;;;;5021906;28;19975;-79
2022/12/02 03:52:15;;;;;;;;;;;4.30;84.50;;;;;;5025305;28;20493;-79
2022/12/02 03:54:41;;;;;;;;;;;4.10;84.30;;;;;;5021890;28;19925;-78
2022/12/02 03:57:06;;;;;;;;;;;4.10;84.50;;;;;;5009159;28;19913;-78
2022/12/02 03:59:32;;;;;;;;;;;4.20;84.40;;;;;;5042177;28;19913;-79
2022/12/02 04:01:58;;;;;;;;;;;4.10;84.30;;;;;;5011521;28;19970;-77
2022/12/02 04:04:23;;;;;;;;;;;4.10;84.30;;;;;;5030118;28;19913;-78
2022/12/02 04:06:49;;;;;;;;;;;4.20;84.00;;;;;;5026423;28;20002;-79
2022/12/02 04:09:15;;;;;;;;;;;4.20;84.10;;;;;;5012640;28;19914;-79
2022/12/02 04:11:40;;;;;;;;;;;4.20;84.10;;;;;;5010634;28;19969;-78
2022/12/02 04:14:06;;;;;;;;;;;4.20;84.30;;;;;;5008943;28;19917;-79
2022/12/02 04:16:31;;;;;;;;;;;4.20;84.50;;;;;;5014007;28;19913;-80
2022/12/02 04:18:57;;;;;;;;;;;4.30;84.10;;;;;;5028532;28;19917;-79
2022/12/02 04:21:23;;;;;;;;;;;4.30;84.30;;;;;;5013902;28;19914;-77
2022/12/02 04:23:50;;;;;;;;;;;4.30;84.60;;;;;;5013801;28;20322;-78
2022/12/02 04:26:16;;;;;;;;;;;4.20;84.50;;;;;;5004654;28;20422;-78
2022/12/02 04:28:42;;;;;;;;;;;4.20;84.60;;;;;;5020385;28;19913;-80
2022/12/02 04:31:07;;;;;;;;;;;4.30;84.50;;;;;;5039123;28;20006;-78
2022/12/02 04:33:33;;;;;;;;;;;4.30;84.20;;;;;;5030858;28;19967;-79
2022/12/02 04:35:58;;;;;;;;;;;4.10;85.10;;;;;;5031563;28;19921;-80
2022/12/02 04:38:24;;;;;;;;;;;4.10;85.40;;;;;;5025476;28;19984;-78
2022/12/02 04:40:50;;;;;;;;;;;4.00;85.90;;;;;;5010864;28;19917;-78
2022/12/02 04:43:15;;;;;;;;;;;4.00;86.50;;;;;;5015747;28;19913;-78
2022/12/02 04:45:41;;;;;;;;;;;4.20;86.30;;;;;;5009389;28;19914;-79
2022/12/02 04:48:06;;;;;;;;;;;4.20;86.20;;;;;;5029867;28;19913;-79
2022/12/02 04:50:32;;;;;;;;;;;4.10;86.80;;;;;;5006161;28;19921;-78
2022/12/02 04:52:58;;;;;;;;;;;4.10;87.10;;;;;;5008957;28;19921;-78
2022/12/02 04:55:23;;;;;;;;;;;4.00;87.30;;;;;;5014249;28;19924;-80
2022/12/02 04:57:49;;;;;;;;;;;4.00;87.50;;;;;;5017228;28;19917;-79
2022/12/02 05:00:15;;;;;;;;;;;3.90;87.50;;;;;;5012567;28;19992;-78
2022/12/02 05:02:40;;;;;;;;;;;3.90;87.60;;;;;;5015689;28;19924;-79
2022/12/02 05:05:06;;;;;;;;;;;3.90;87.40;;;;;;5030233;28;19967;-80
2022/12/02 05:07:32;;;;;;;;;;;4.00;87.40;;;;;;5018346;28;19967;-79
2022/12/02 05:09:57;;;;;;;;;;;3.90;87.40;;;;;;5028576;28;20016;-80
2022/12/02 05:12:23;;;;;;;;;;;3.80;87.80;;;;;;5024227;28;19975;-79
2022/12/02 05:14:49;;;;;;;;;;;3.90;87.60;;;;;;5029582;28;19921;-78
2022/12/02 05:17:15;;;;;;;;;;;3.80;87.70;;;;;;5015519;28;20384;-78
2022/12/02 05:19:40;;;;;;;;;;;3.90;87.90;;;;;;5026729;28;19946;-80
2022/12/02 05:22:06;;;;;;;;;;;3.80;87.80;;;;;;5013439;28;19920;-81
2022/12/02 05:24:31;;;;;;;;;;;4.00;87.70;;;;;;5014505;28;19913;-80
2022/12/02 05:26:57;;;;;;;;;;;3.90;87.60;;;;;;5024615;28;19914;-78
2022/12/02 05:29:23;;;;;;;;;;;3.90;87.90;;;;;;5014505;28;19936;-79
2022/12/02 05:31:48;;;;;;;;;;;4.00;87.50;;;;;;5012363;28;20361;-79
2022/12/02 05:34:14;;;;;;;;;;;4.00;87.40;;;;;;5034653;28;19921;-79
2022/12/02 05:36:39;;;;;;;;;;;4.00;86.80;;;;;;5016868;28;19913;-76
2022/12/02 05:39:05;;;;;;;;;;;4.10;86.90;;;;;;5022954;28;19917;-76
2022/12/02 05:41:30;;;;;;;;;;;4.10;86.70;;;;;;5035725;28;19959;-78
2022/12/02 05:43:58;;;;;;;;;;;4.00;86.70;;;;;;5014111;28;20337;-80
2022/12/02 05:46:24;;;;;;;;;;;3.90;86.70;;;;;;5026269;28;19952;-78
2022/12/02 05:48:49;;;;;;;;;;;4.00;86.60;;;;;;5015720;28;19964;-79
2022/12/02 05:51:17;;;;;;;;;;;4.10;86.40;;;;;;5028941;28;20380;-79
2022/12/02 05:53:43;;;;;;;;;;;4.10;86.30;;;;;;5019802;28;20003;-77
2022/12/02 05:56:26;;;;;;;;;;;4.00;86.80;;;;;;5019599;28;19967;-78
2022/12/02 05:58:52;;;;;;;;;;;4.00;86.50;;;;;;5021002;28;20407;-77
2022/12/02 06:01:30;;;;;;;;;;;4.00;86.40;;;;;;5036722;28;19915;-79
2022/12/02 06:03:57;;;;;;;;;;;3.90;86.80;;;;;;5018397;28;19932;-79
2022/12/02 06:06:25;;;;;;;;;;;3.90;86.60;;;;;;5013634;28;20363;-78
2022/12/02 06:08:52;;;;;;;;;;;3.90;86.70;;;;;;5016901;28;19940;-77
2022/12/02 06:11:24;;;;;;;;;;;4.00;86.70;;;;;;5027394;28;19913;-78
2022/12/02 06:13:50;;;;;;;;;;;4.00;86.60;;;;;;5019556;28;20388;-78
2022/12/02 06:16:20;;;;;;;;;;;4.00;86.40;;;;;;5007721;28;19943;-78
2022/12/02 06:18:46;;;;;;;;;;;4.00;86.00;;;;;;5005631;28;20575;-80
2022/12/02 06:21:14;;;;;;;;;;;4.00;86.30;;;;;;5015161;28;19940;-78
2022/12/02 06:23:43;;;;;;;;;;;3.90;86.70;;;;;;5018427;28;19917;-78
2022/12/02 06:26:11;;;;;;;;;;;3.90;86.40;;;;;;5021227;28;20182;-78
2022/12/02 06:28:38;;;;;;;;;;;4.00;86.40;;;;;;5014831;28;19920;-77
2022/12/02 06:31:10;;;;;;;;;;;3.90;86.30;;;;;;5009854;28;19928;-78
2022/12/02 06:33:39;;;;;;;;;;;3.90;86.50;;;;;;5000579;28;19971;-78
2022/12/02 06:36:25;;;;;;;;;;;4.00;85.90;;;;;;5024638;28;19958;-79
2022/12/02 06:38:56;;;;;;;;;;;4.00;86.00;;;;;;5015903;28;19919;-79
2022/12/02 06:41:26;;;;;;;;;;;3.90;85.80;;;;;;5006669;28;19947;-78
2022/12/02 06:46:40;;;;;;;;;;;4.00;86.00;;;;;;5030556;28;19988;-81
2022/12/02 06:49:18;;;;;;;;;;;3.90;85.60;;;;;;5029672;28;19913;-77
2022/12/02 06:51:44;;;;;;;;;;;3.70;86.10;;;;;;5028326;28;20374;-83
2022/12/02 06:54:29;;;;;;;;;;;3.80;85.80;;;;;;5033823;28;19928;-80
2022/12/02 06:56:56;;;;;;;;;;;3.80;85.70;;;;;;5036737;28;19917;-82
2022/12/02 06:59:22;;;;;;;;;;;3.90;85.50;;;;;;5025756;28;19924;-78
2022/12/02 07:01:51;;;;;;;;;;;3.80;85.70;;;;;;5026146;28;19920;-81
2022/12/02 07:04:26;;;;;;;;;;;3.60;86.10;;;;;;5003926;28;19913;-82
2022/12/02 07:06:54;;;;;;;;;;;3.60;86.10;;;;;;5030493;28;19917;-80
2022/12/02 07:09:31;;;;;;;;;;;3.80;85.70;;;;;;5016679;28;20695;-79
2022/12/02 07:11:58;;;;;;;;;;;3.90;85.60;;;;;;5018085;28;19921;-79
2022/12/02 07:14:26;;;;;;;;;;;3.90;85.60;;;;;;5011470;28;19921;-80
2022/12/02 07:16:54;;;;;;;;;;;3.80;85.50;;;;;;5008946;28;19917;-80
2022/12/02 07:19:21;;;;;;;;;;;3.60;85.60;;;;;;5011609;28;19961;-78
2022/12/02 07:21:47;;;;;;;;;;;3.60;85.90;;;;;;5029321;28;19909;-78
2022/12/02 07:24:14;;;;;;;;;;;3.70;86.10;;;;;;5022004;28;19919;-79
2022/12/02 07:26:40;;;;;;;;;;;3.60;86.20;;;;;;5017271;28;19942;-78
2022/12/02 07:29:09;;;;;;;;;;;3.70;86.20;;;;;;5019372;28;19932;-79
2022/12/02 07:31:37;;;;;;;;;;;3.80;85.40;;;;;;5017867;28;20372;-78
2022/12/02 07:34:02;;;;;;;;;;;3.70;85.60;;;;;;5009392;28;20292;-79
2022/12/02 07:36:28;;;;;;;;;;;3.70;86.00;;;;;;5007359;28;19912;-79
2022/12/02 07:38:53;;;;;;;;;;;3.90;85.80;;;;;;5004786;28;20223;-77
2022/12/02 07:41:19;;;;;;;;;;;3.70;85.50;;;;;;5014888;28;19921;-79
2022/12/02 07:43:45;;;;;;;;;;;3.80;85.70;;;;;;5019652;28;20000;-79
2022/12/02 07:46:10;;;;;;;;;;;3.70;85.80;;;;;;5016346;28;19988;-80
2022/12/02 07:48:36;;;;;;;;;;;3.80;85.80;;;;;;5018744;28;20276;-80
2022/12/02 07:51:01;;;;;;;;;;;3.70;85.70;;;;;;5003047;28;19913;-78
2022/12/02 07:53:26;;;;;;;;;;;3.80;86.00;;;;;;5031437;28;19923;-80
2022/12/02 07:55:52;;;;;;;;;;;3.90;86.10;;;;;;5036184;28;19917;-80
2022/12/02 07:58:17;;;;;;;;;;;4.00;85.50;;;;;;5036971;28;19980;-80
2022/12/02 08:00:43;;;;;;;;;;;3.90;85.10;;;;;;5031654;28;19963;-81
2022/12/02 08:03:08;;;;;;;;;;;4.00;84.70;;;;;;5037152;28;19916;-81
2022/12/02 08:05:34;;;;;;;;;;;4.00;84.60;;;;;;5028815;28;19917;-79
2022/12/02 08:07:59;;;;;;;;;;;3.90;85.00;;;;;;5009380;28;20340;-80
2022/12/02 08:10:25;;;;;;;;;;;3.90;85.00;;;;;;4999536;28;20155;-81
2022/12/02 08:12:50;;;;;;;;;;;4.00;85.00;;;;;;5021933;28;19974;-78
2022/12/02 08:15:16;;;;;;;;;;;4.00;84.50;;;;;;5019156;28;19921;-81
2022/12/02 08:17:41;;;;;;;;;;;3.90;84.50;;;;;;5027711;28;20279;-81
2022/12/02 08:20:09;;;;;;;;;;;3.90;84.70;;;;;;5030017;28;20378;-81
2022/12/02 08:22:35;;;;;;;;;;;4.00;84.70;;;;;;5007476;28;19913;-82
2022/12/02 08:25:00;;;;;;;;;;;4.00;84.70;;;;;;5022994;28;19928;-80
2022/12/02 08:27:26;;;;;;;;;;;4.00;84.10;;;;;;5020261;28;20435;-84
2022/12/02 08:29:51;;;;;;;;;;;4.00;84.40;;;;;;5003922;28;19918;-83
2022/12/02 08:32:18;;;;;;;;;;;4.00;84.10;;;;;;5000926;28;19913;-80
2022/12/02 08:34:43;;;;;;;;;;;3.90;84.00;;;;;;5013799;28;19971;-82
2022/12/02 08:37:09;;;;;;;;;;;3.80;84.20;;;;;;5015010;28;19925;-82
2022/12/02 08:39:35;;;;;;;;;;;3.60;84.90;;;;;;5016549;28;20296;-81
2022/12/02 08:42:00;;;;;;;;;;;3.80;84.50;;;;;;5015778;28;20000;-80
2022/12/02 08:44:26;;;;;;;;;;;3.70;84.60;;;;;;5023302;28;19913;-81
2022/12/02 08:46:51;;;;;;;;;;;3.60;84.80;;;;;;5029415;28;19913;-82
2022/12/02 08:49:17;;;;;;;;;;;3.60;85.20;;;;;;5024088;28;20000;-80
2022/12/02 08:51:42;;;;;;;;;;;3.60;84.90;;;;;;5009913;28;19992;-82
2022/12/02 08:54:08;;;;;;;;;;;3.80;84.80;;;;;;5006664;28;19939;-82
2022/12/02 08:56:33;;;;;;;;;;;3.80;84.50;;;;;;5009138;28;20028;-78
2022/12/02 08:58:59;;;;;;;;;;;3.80;84.60;;;;;;5007926;28;19918;-81
2022/12/02 09:01:24;;;;;;;;;;;3.80;84.40;;;;;;5012073;28;19962;-80
2022/12/02 09:03:49;;;;;;;;;;;4.10;83.30;;;;;;5008825;28;19920;-80
2022/12/02 09:06:15;;;;;;;;;;;3.80;83.40;;;;;;5010098;28;20291;-79
2022/12/02 09:08:40;;;;;;;;;;;3.70;83.90;;;;;;5034846;28;19924;-81
2022/12/02 09:11:06;;;;;;;;;;;3.60;84.60;;;;;;5008525;28;20365;-81
2022/12/02 09:13:31;;;;;;;;;;;3.60;84.30;;;;;;5019881;28;19923;-81
2022/12/02 09:15:57;;;;;;;;;;;3.60;84.10;;;;;;5024398;28;19937;-81
2022/12/02 09:18:23;;;;;;;;;;;3.70;84.00;;;;;;5014056;28;20288;-81
2022/12/02 09:20:49;;;;;;;;;;;3.70;84.30;;;;;;5014606;28;19957;-81
2022/12/02 09:23:14;;;;;;;;;;;3.90;83.70;;;;;;5014883;28;20386;-81
2022/12/02 09:25:40;;;;;;;;;;;3.80;83.70;;;;;;5026236;28;19920;-79
2022/12/02 09:28:05;;;;;;;;;;;3.80;83.50;;;;;;5018119;28;19963;-79
2022/12/02 09:30:31;;;;;;;;;;;3.90;83.20;;;;;;5022189;28;19913;-80
2022/12/02 09:32:56;;;;;;;;;;;3.80;83.50;;;;;;5020368;28;20035;-80
2022/12/02 09:35:22;;;;;;;;;;;3.90;83.50;;;;;;5014950;28;19968;-80
2022/12/02 09:37:47;;;;;;;;;;;3.90;83.40;;;;;;5031170;28;20466;-81
2022/12/02 09:40:13;;;;;;;;;;;3.80;83.50;;;;;;5030765;28;19925;-81
2022/12/02 09:42:39;;;;;;;;;;;4.00;83.50;;;;;;5037495;28;20368;-77
2022/12/02 09:45:04;;;;;;;;;;;3.80;83.20;;;;;;5024006;28;19922;-80
2022/12/02 09:47:30;;;;;;;;;;;3.90;83.10;;;;;;5032873;28;20390;-81
2022/12/02 09:49:55;;;;;;;;;;;3.90;82.80;;;;;;5035745;28;19917;-80
2022/12/02 09:52:25;;;;;;;;;;;3.90;82.60;;;;;;5022122;28;19948;-81
2022/12/02 09:55:00;;;;;;;;;;;3.90;82.70;;;;;;5013016;28;19921;-83
2022/12/02 09:57:27;;;;;;;;;;;3.90;82.70;;;;;;5016897;28;19914;-82
2022/12/02 09:59:53;;;;;;;;;;;3.90;82.50;;;;;;5013913;28;19913;-81
2022/12/02 10:02:27;;;;;;;;;;;4.00;82.60;;;;;;5012000;28;20411;-82
2022/12/02 10:04:54;;;;;;;;;;;4.10;81.90;;;;;;5014062;28;20350;-82
2022/12/02 10:07:19;;;;;;;;;;;4.10;81.70;;;;;;5030612;28;19952;-80
2022/12/02 10:09:45;;;;;;;;;;;4.10;81.90;;;;;;5014199;28;19959;-82
2022/12/02 10:12:10;;;;;;;;;;;4.00;82.20;;;;;;5018730;28;19920;-83
2022/12/02 10:14:36;;;;;;;;;;;3.80;82.40;;;;;;5037803;28;19917;-80
2022/12/02 10:17:08;;;;;;;;;;;3.70;82.80;;;;;;5028949;28;19917;-80
2022/12/02 10:19:34;;;;;;;;;;;3.70;82.70;;;;;;5013802;28;20096;-82
2022/12/02 10:22:00;;;;;;;;;;;3.70;82.70;;;;;;5017407;28;19909;-82
2022/12/02 10:24:36;;;;;;;;;;;3.80;82.40;;;;;;5013304;28;19913;-83
2022/12/02 10:27:02;;;;;;;;;;;3.80;82.40;;;;;;5034963;28;19934;-83
2022/12/02 10:29:28;;;;;;;;;;;3.90;82.30;;;;;;5033483;28;20502;-83
2022/12/02 10:31:54;;;;;;;;;;;4.00;81.90;;;;;;5015418;28;19917;-82
2022/12/02 10:34:20;;;;;;;;;;;3.90;82.00;;;;;;5023118;28;19917;-83
2022/12/02 10:36:46;;;;;;;;;;;3.90;82.00;;;;;;5018704;28;19913;-80
2022/12/02 10:39:21;;;;;;;;;;;4.00;81.30;;;;;;5029132;28;20013;-81
2022/12/02 10:42:07;;;;;;;;;;;3.90;81.80;;;;;;5016502;28;19917;-82
2022/12/02 10:44:37;;;;;;;;;;;4.00;81.60;;;;;;5017000;28;20254;-82
2022/12/02 10:47:28;;;;;;;;;;;3.90;82.00;;;;;;5032569;28;19943;-78
2022/12/02 10:49:55;;;;;;;;;;;4.00;81.90;;;;;;5023146;28;19920;-78
2022/12/02 10:52:22;;;;;;;;;;;4.10;81.90;;;;;;5047425;28;19944;-76
2022/12/02 10:54:49;;;;;;;;;;;4.10;81.30;;;;;;5052736;28;19916;-77
2022/12/02 10:57:25;;;;;;;;;;;4.00;80.90;;;;;;5044001;28;20217;-80
2022/12/02 10:59:52;;;;;;;;;;;4.10;81.20;;;;;;5052728;28;20436;-78
2022/12/02 11:02:19;;;;;;;;;;;4.00;81.00;;;;;;5016470;28;19972;-78
2022/12/02 11:04:45;;;;;;;;;;;4.10;80.90;;;;;;5019003;28;19958;-78
2022/12/02 11:07:14;;;;;;;;;;;4.10;80.70;;;;;;5036574;28;19913;-78
2022/12/02 11:09:43;;;;;;;;;;;4.10;80.80;;;;;;5028776;28;19955;-79
2022/12/02 11:12:27;;;;;;;;;;;3.90;81.10;;;;;;5035345;28;19952;-80
2022/12/02 11:14:53;;;;;;;;;;;3.90;81.20;;;;;;5029836;28;19924;-79
2022/12/02 11:17:38;;;;;;;;;;;4.00;81.30;;;;;;5012436;28;19921;-81
2022/12/02 11:20:22;;;;;;;;;;;4.00;80.90;;;;;;5011286;28;19920;-83
2022/12/02 11:22:57;;;;;;;;;;;4.00;80.70;;;;;;5018366;28;20427;-80
2022/12/02 11:25:41;;;;;;;;;;;3.90;80.80;;;;;;5014096;28;20299;-82
2022/12/02 11:28:25;;;;;;;;;;;4.10;80.20;;;;;;5002876;28;20261;-83
2022/12/02 11:31:11;;;;;;;;;;;4.10;80.70;;;;;;5020344;28;20543;-82
2022/12/02 11:33:42;;;;;;;;;;;3.90;80.90;;;;;;5005436;28;19917;-82
2022/12/02 11:36:07;;;;;;;;;;;3.80;81.70;;;;;;5028134;28;19960;-80
2022/12/02 11:38:45;;;;;;;;;;;3.90;81.20;;;;;;5022963;28;20352;-81
2022/12/02 11:41:10;;;;;;;;;;;3.90;81.30;;;;;;5011937;28;19926;-80
2022/12/02 11:43:40;;;;;;;;;;;4.00;80.90;;;;;;5030902;28;19912;-80
2022/12/02 11:46:05;;;;;;;;;;;4.10;80.60;;;;;;5015999;28;19913;-81
2022/12/02 11:48:31;;;;;;;;;;;4.30;79.90;;;;;;5013838;28;20296;-78
2022/12/02 11:50:56;;;;;;;;;;;4.10;80.40;;;;;;5034585;28;19913;-81
2022/12/02 11:53:23;;;;;;;;;;;4.20;79.90;;;;;;5027794;28;19994;-80
2022/12/02 11:55:49;;;;;;;;;;;4.10;80.00;;;;;;5028421;28;19924;-81
2022/12/02 11:58:24;;;;;;;;;;;4.00;80.30;;;;;;5010652;28;19988;-81
2022/12/02 12:00:59;;;;;;;;;;;4.00;80.60;;;;;;5013417;28;19913;-79
2022/12/02 12:03:24;;;;;;;;;;;4.10;80.10;;;;;;5024657;28;19913;-81
2022/12/02 12:06:05;;;;;;;;;;;4.10;80.10;;;;;;5028233;28;19925;-82
2022/12/02 12:08:31;;;;;;;;;;;3.90;80.80;;;;;;5024421;28;19913;-82
2022/12/02 12:11:15;;;;;;;;;;;4.00;80.90;;;;;;5013396;28;19913;-82
2022/12/02 12:13:56;;;;;;;;;;;4.00;80.80;;;;;;5007537;28;19917;-81
2022/12/02 12:16:22;;;;;;;;;;;4.00;80.70;;;;;;5028157;28;19928;-81
2022/12/02 12:18:48;;;;;;;;;;;3.90;80.30;;;;;;5032214;28;19913;-81
2022/12/02 12:21:34;;;;;;;;;;;3.90;80.90;;;;;;5030872;28;19932;-81
2022/12/02 12:24:15;;;;;;;;;;;3.90;80.30;;;;;;5025866;28;19913;-89
2022/12/02 12:26:41;;;;;;;;;;;3.90;80.90;;;;;;5027834;28;19921;-89
2022/12/02 12:29:07;;;;;;;;;;;3.80;80.70;;;;;;5041584;28;19913;-87
2022/12/02 12:31:32;;;;;;;;;;;3.80;80.70;;;;;;5015524;28;20308;-83
2022/12/02 12:33:58;;;;;;;;;;;3.80;80.90;;;;;;5038137;28;19952;-83
2022/12/02 12:36:23;;;;;;;;;;;3.90;80.30;;;;;;5021527;28;19919;-81
2022/12/02 12:38:49;;;;;;;;;;;3.90;80.60;;;;;;5012404;28;19929;-81
2022/12/02 12:41:14;;;;;;;;;;;3.90;80.80;;;;;;5024994;28;20485;-80
2022/12/02 12:43:40;;;;;;;;;;;4.00;80.40;;;;;;5036658;28;19920;-81
2022/12/02 12:46:06;;;;;;;;;;;4.00;80.40;;;;;;5016816;28;19988;-82
2022/12/02 12:48:31;;;;;;;;;;;4.10;79.60;;;;;;5016590;28;19916;-80
2022/12/02 12:50:57;;;;;;;;;;;3.90;80.00;;;;;;5015263;28;20364;-79
2022/12/02 12:53:22;;;;;;;;;;;3.90;80.40;;;;;;5011617;28;19917;-81
2022/12/02 12:55:49;;;;;;;;;;;3.80;80.30;;;;;;5016882;28;20124;-82
2022/12/02 12:58:16;;;;;;;;;;;3.90;79.90;;;;;;5032223;28;19913;-85
2022/12/02 13:00:42;;;;;;;;;;;3.80;80.40;;;;;;5022829;28;20051;-81
2022/12/02 13:03:07;;;;;;;;;;;3.80;80.20;;;;;;5010030;28;19914;-84
2022/12/02 13:05:33;;;;;;;;;;;3.90;79.80;;;;;;5023866;28;20418;-82
2022/12/02 13:07:58;;;;;;;;;;;3.90;79.70;;;;;;5030331;28;19920;-82
2022/12/02 13:10:24;;;;;;;;;;;3.90;79.40;;;;;;5014952;28;19957;-83
2022/12/02 13:12:50;;;;;;;;;;;3.80;79.60;;;;;;5016639;28;19933;-87
2022/12/02 13:15:15;;;;;;;;;;;4.00;79.20;;;;;;5028453;28;20001;-83
2022/12/02 13:17:41;;;;;;;;;;;3.90;79.20;;;;;;5012144;28;19913;-81
2022/12/02 13:20:07;;;;;;;;;;;3.90;79.30;;;;;;5021637;28;19918;-82
2022/12/02 13:22:32;;;;;;;;;;;3.80;79.70;;;;;;5035471;28;19917;-86
2022/12/02 13:24:58;;;;;;;;;;;3.90;79.70;;;;;;5031928;28;20369;-82
2022/12/02 13:27:24;;;;;;;;;;;4.00;78.80;;;;;;5022595;28;20012;-83
2022/12/02 13:29:49;;;;;;;;;;;3.90;78.60;;;;;;5033558;28;20008;-88
2022/12/02 13:32:15;;;;;;;;;;;3.90;78.90;;;;;;5007433;28;19917;-88
2022/12/02 13:34:41;;;;;;;;;;;3.80;79.20;;;;;;5030031;28;20442;-87
2022/12/02 13:37:06;;;;;;;;;;;3.80;79.30;;;;;;5013219;28;20396;-86
2022/12/02 13:39:32;;;;;;;;;;;4.00;78.70;;;;;;5019010;28;19975;-86
2022/12/02 13:41:57;;;;;;;;;;;3.90;79.00;;;;;;5031040;28;20427;-85
2022/12/02 13:44:22;;;;;;;;;;;3.90;78.70;;;;;;5010040;28;19997;-86
2022/12/02 13:46:48;;;;;;;;;;;3.90;78.90;;;;;;5016100;28;19913;-81
2022/12/02 13:49:13;;;;;;;;;;;3.90;78.60;;;;;;5047547;28;19936;-83
2022/12/02 13:51:39;;;;;;;;;;;3.80;79.00;;;;;;5027414;28;19948;-85
2022/12/02 13:54:04;;;;;;;;;;;3.80;78.70;;;;;;5040653;28;19917;-85
2022/12/02 13:56:30;;;;;;;;;;;3.80;79.00;;;;;;5022092;28;20000;-82
2022/12/02 13:58:55;;;;;;;;;;;3.80;78.80;;;;;;5015621;28;19917;-85
2022/12/02 14:01:21;;;;;;;;;;;3.70;79.10;;;;;;5011949;28;20383;-81
2022/12/02 14:03:46;;;;;;;;;;;3.70;79.30;;;;;;5014686;28;19936;-84
2022/12/02 14:06:12;;;;;;;;;;;3.60;79.40;;;;;;5017226;28;19913;-85
2022/12/02 14:08:38;;;;;;;;;;;3.60;79.50;;;;;;5023466;28;19913;-86
2022/12/02 14:11:04;;;;;;;;;;;3.70;79.10;;;;;;5014784;28;19924;-80
2022/12/02 14:13:29;;;;;;;;;;;3.70;79.30;;;;;;5035602;28;19917;-88
2022/12/02 14:15:55;;;;;;;;;;;3.60;79.30;;;;;;5022302;28;19927;-84
2022/12/02 14:18:20;;;;;;;;;;;3.60;79.30;;;;;;5017562;28;19913;-82
2022/12/02 14:20:46;;;;;;;;;;;3.70;79.30;;;;;;5014597;28;19921;-87
2022/12/02 14:23:11;;;;;;;;;;;3.70;79.30;;;;;;5009902;28;19929;-83
2022/12/02 14:25:37;;;;;;;;;;;3.70;79.00;;;;;;5009745;28;19917;-83
2022/12/02 14:28:02;;;;;;;;;;;3.60;79.60;;;;;;5008222;28;19924;-83
2022/12/02 14:30:28;;;;;;;;;;;3.60;79.80;;;;;;5030384;28;19982;-83
2022/12/02 14:32:53;;;;;;;;;;;3.60;79.50;;;;;;5016243;28;19997;-84
2022/12/02 14:35:19;;;;;;;;;;;3.70;79.40;;;;;;5026359;28;20396;-83